LEMH/MAH METAR and TAF weather

Enter ICAO airport designator
Station Type Date Time Source
LEMH METAR 2021/10/20 06:00 UTC NOAA

LEMH 200600Z 15004KT 130V190 9999 FEW033 17/12 Q1025


Station Type Date Time Source
LEMH Decoded METAR 2021/10/20 06:00 UTC NOAA

Menorca / Mahon, Spain (LEMH) 39-52N 004-14E 82M
Oct 20, 2021 - 02:00 AM EDT / 2021.10.20 0600 UTC
Wind: from the SSE (150 degrees) at 5 MPH (4 KT) (direction variable):0
Visibility: greater than 7 mile(s):0
Sky conditions: mostly clear
Temperature: 62 F (17 C)
Dew Point: 53 F (12 C)
Relative Humidity: 72%
Pressure (altimeter): 30.27 in. Hg (1025 hPa)
ob: LEMH 200600Z 15004KT 130V190 9999 FEW033 17/12 Q1025
cycle: 6

Station Type Date Time Source
LEMH TAF 2021/10/20 03:27 UTC NOAA

TAF LEMH 200200Z 2003/2103 16007KT 9999 FEW030 TX24/2012Z TN14/2006Z
BECMG 2022/2024 22010KT

Example: see airport list